WetterOnline ( https://www.wetteronline.at )

Wetter aktuell Flensburg

Aktuelles Wetter: Schleswig (48m)

6-stündlich | Neueste Meldungen
Ortszeit Temperatur Wetter
So, 29.05. 2:00 8.4° C bewölkt
Sa, 28.05. 20:00 10.7° C bedeckt
Sa, 28.05. 14:00 11.8° C Sprühregen
Sa, 28.05. 8:00 11.1° C leicht bewölkt
Sa, 28.05. 2:00 7.9° C leichter Regen
Fr, 27.05. 20:00 10.8° C leicht bewölkt
Fr, 27.05. 14:00 12.8° C wolkig
Fr, 27.05. 8:00 12.6° C fast wolkenlos
Ortszeit Temperatur Wetter
So, 29.05. 6:00 8.2° C bewölkt
So, 29.05. 5:50 8.2° C bewölkt
So, 29.05. 5:40 8.0° C bedeckt
So, 29.05. 5:30 7.8° C bewölkt
So, 29.05. 5:20 7.8° C bewölkt
So, 29.05. 5:10 7.6° C bedeckt
So, 29.05. 5:00 7.5° C wolkig
So, 29.05. 4:30 7.7° C bewölkt
So, 29.05. 4:00 7.4° C bewölkt
So, 29.05. 3:30 7.6° C bewölkt
So, 29.05. 3:00 7.7° C wolkig
Ortszeit Relative Feuchte Sichtweite
So, 29.05. 2:00 90% 16 km
Sa, 28.05. 20:00 85% 27 km
Sa, 28.05. 14:00 70% 19 km
Sa, 28.05. 8:00 67% 28 km
Sa, 28.05. 2:00 86% 19 km
Fr, 27.05. 20:00 74% 35 km
Fr, 27.05. 14:00 69% 29 km
Fr, 27.05. 8:00 73% 30 km
Ortszeit Relative Feuchte Sichtweite
So, 29.05. 6:00 93% 12 km
So, 29.05. 5:50 93% -
So, 29.05. 5:40 94% -
So, 29.05. 5:30 93% 12 km
So, 29.05. 5:20 93% -
So, 29.05. 5:10 95% -
So, 29.05. 5:00 95% 11 km
So, 29.05. 4:30 93% 14 km
So, 29.05. 4:00 94% 13 km
So, 29.05. 3:30 93% 15 km
So, 29.05. 3:00 93% 15 km
Ortszeit Niederschlagsmenge Niederschlagsart
So, 29.05. 2:00 0.5 l/m2 in 6 Std. Regen
Sa, 28.05. 20:00 0.2 l/m2 in 12 Std. Regen
Sa, 28.05. 14:00 0.1 l/m2 in 6 Std. Regen
Sa, 28.05. 8:00 0.9 l/m2 in 12 Std. Regen
Sa, 28.05. 2:00 0.8 l/m2 in 6 Std. Regen
Fr, 27.05. 20:00 3 l/m2 in 12 Std. Regen
Fr, 27.05. 14:00 1 l/m2 in 6 Std. Regen
Fr, 27.05. 8:00 6 l/m2 in 12 Std. -
Ortszeit Niederschlagsmenge Niederschlagsart
So, 29.05. 6:00 0.0 l/m2 in 1 Std. -
So, 29.05. 5:50 keine Meldung -
So, 29.05. 5:40 keine Meldung -
So, 29.05. 5:30 0.0 l/m2 in 1 Std. -
So, 29.05. 5:20 keine Meldung -
So, 29.05. 5:10 keine Meldung -
So, 29.05. 5:00 0.0 l/m2 in 1 Std. -
So, 29.05. 4:30 0.0 l/m2 in 1 Std. -
So, 29.05. 4:00 0.0 l/m2 in 1 Std. -
So, 29.05. 3:30 0.0 l/m2 in 1 Std. -
So, 29.05. 3:00 0.0 l/m2 in 1 Std. -
Ortszeit Stärke Spitze Richtung
km/h Bft. km/h Grad Sektor
So, 29.05. 2:00 7 2 32 250° W
Sa, 28.05. 20:00 15 3 44 290° W
Sa, 28.05. 14:00 22 4 59 290° W
Sa, 28.05. 8:00 20 4 48 300° NW
Sa, 28.05. 2:00 18 3 50 310° NW
Fr, 27.05. 20:00 24 4 63 280° W
Fr, 27.05. 14:00 31 5 61 270° W
Fr, 27.05. 8:00 18 3 47 260° W
Ortszeit Stärke Spitze Richtung
km/h Bft. km/h Grad Sektor
So, 29.05. 6:00 2 1 6 190° S
So, 29.05. 5:50 2 1 - 190° S
So, 29.05. 5:40 4 1 - 210° SW
So, 29.05. 5:30 4 1 7 220° SW
So, 29.05. 5:20 4 1 - 220° SW
So, 29.05. 5:10 4 1 - 240° SW
So, 29.05. 5:00 4 1 11 230° SW
So, 29.05. 4:30 4 1 11 240° SW
So, 29.05. 4:00 4 1 11 240° SW
So, 29.05. 3:30 4 1 11 240° SW
So, 29.05. 3:00 6 1 13 250° W
Ortszeit Untergrenze Bedeckung Gattung
total tief tief mittel hoch
So, 29.05. 2:00 750 m 7/8 7/8 - - -
Sa, 28.05. 20:00 390 m 8/8 8/8 - - -
Sa, 28.05. 14:00 690 m 8/8 8/8 - - -
Sa, 28.05. 8:00 900 m 5/8 3/8 - - -
Sa, 28.05. 2:00 600 m 8/8 4/8 - - -
Fr, 27.05. 20:00 720 m 2/8 2/8 - - -
Fr, 27.05. 14:00 840 m 6/8 6/8 - - -
Fr, 27.05. 8:00 660 m 1/8 1/8 - - -
Ortszeit Bedeckungsgrad in Achtel und Wolkenuntergrenze
So, 29.05. 6:00 2(390m) 7(780m) 8(4200m)
So, 29.05. 5:50 2(390m) 7(780m) 8(4200m)
So, 29.05. 5:40 8
So, 29.05. 5:30 6(780m) 8(4200m)
So, 29.05. 5:20 6(780m) 8(4200m)
So, 29.05. 5:10 8
So, 29.05. 5:00 3(450m) 8(4200m) 8(5400m)
So, 29.05. 4:30 5(450m) 8(4200m) 8(5400m)
So, 29.05. 4:00 6(540m) 8(4200m) 8(5400m)
So, 29.05. 3:30 6(750m) 8(3900m) 8(6000m)
So, 29.05. 3:00 4(660m) 7(3600m) 7(8700m)
Ortszeit Luftdruck NN (hPa) Tendenz (hPa in 3 Std.)
So, 29.05. 2:00 1012 - 1,2
Sa, 28.05. 20:00 1013 - 0,5
Sa, 28.05. 14:00 1013 + 0,8
Sa, 28.05. 8:00 1012 + 0,9
Sa, 28.05. 2:00 1012 - 0,8
Fr, 27.05. 20:00 1013 - 0,5
Fr, 27.05. 14:00 1013 + 0,1
Fr, 27.05. 8:00 1013 + 0,2
Ortszeit Luftdruck NN (hPa) Tendenz (hPa in 3 Std.)
So, 29.05. 6:00 1010 - 0,8
So, 29.05. 5:50 1010 keine Meldung
So, 29.05. 5:40 1010 keine Meldung
So, 29.05. 5:30 1010 - 1,0
So, 29.05. 5:20 1010 keine Meldung
So, 29.05. 5:10 1011 keine Meldung
So, 29.05. 5:00 1011 - 0,9
So, 29.05. 4:30 1011 - 1,1
So, 29.05. 4:00 1011 - 1,3
So, 29.05. 3:30 1011 - 1,3
So, 29.05. 3:00 1011 - 1,3
Ortszeit Schneehöhe (cm)
So, 29.05. 2:00 0
Sa, 28.05. 20:00 0
Sa, 28.05. 14:00 0
Sa, 28.05. 8:00 0
Sa, 28.05. 2:00 0
Fr, 27.05. 20:00 0
Fr, 27.05. 14:00 0
Fr, 27.05. 8:00 0
Ortszeit Schneehöhe (cm)
So, 29.05. 6:00 0
So, 29.05. 5:50 0
So, 29.05. 5:40 0
So, 29.05. 5:30 0
So, 29.05. 5:20 0
So, 29.05. 5:10 0
So, 29.05. 5:00 0
So, 29.05. 4:30 0
So, 29.05. 4:00 0
So, 29.05. 3:30 0
So, 29.05. 3:00 0
Link zu dieser Seite / Seite empfehlen

Das Wetter in ...